TAF Benelux - 19 Feb 2018 - 0147 UTC - RocketRoute WX - rrwx.com
EBBR COR 182300Z 1900/2006 18005KT CAVOK EBCI COR 182300Z 1900/2006 18005KT CAVOK PROB40 2003/2006 4000 BR BKN005 EBAW 182300Z 1900/1909 18004KT CAVOK EBLG COR 182300Z 1900/2006 17008KT CAVOK EBOS COR 182300Z 1900/2006 17008KT 9999 SCT025 BKN045 BECMG 1914/1916 SCT004 BKN010 TEMPO 1915/2006 3500 -DZRA BKN004 EHEH 182327Z 1900/2006 18003KT CAVOK PROB40 TEMPO 1900/1908 3000 MIFG BECMG 1918/1921 09003KT EHGG 182309Z 1900/2006 18005KT 6000 NSC PROB40 1900/1906 1500 BCFG BR BECMG 1906/1909 9999 SCT020 BECMG 1920/1923 4500 BR MIFG PROB30 1920/2006 1500 BCFG EHBK 182309Z 1900/2006 18005KT CAVOK PROB30 TEMPO 2000/2006 2500 BR EHRD 182237Z 1900/2006 17006KT CAVOK PROB30 1903/1908 6000 PROB40 2001/2006 4000 MIFG BR EHAM 182240Z 1900/2006 16006KT 7000 NSC PROB30 TEMPO 1903/1908 4500 BR BECMG 1907/1909 CAVOK PROB30 2001/2006 4000 MIFG BR ELLX 182300Z 1900/2006 13005KT 3000 BR BKN009 BECMG 1908/1910 9999 NSW SCT014 TEMPO 1912/2006 VRB02KT BECMG 1920/1922 BKN012 TEMPO 2000/2006 3000 BR -SG BKN006

RocketRoute WX - rrwx.com weather for pilots